KENW/ENW METAR and TAF weather

Enter ICAO airport designator
Station Type Date Time Source
KENW METAR 2020/12/05 06:29 UTC NOAA

KENW 050629Z AUTO 33005KT 10SM BKN029 M01/M05 A3008 RMK AO2 T10061050


Station Type Date Time Source
KENW Decoded METAR 2020/12/05 06:29 UTC NOAA

KENOSHA REGIONAL AIRPORT, WI, United States (KENW) 42-36N 087-56W 219M
Dec 05, 2020 - 01:29 AM EST / 2020.12.05 0629 UTC
Wind: from the NNW (330 degrees) at 6 MPH (5 KT):0
Visibility: 10 mile(s):0
Sky conditions: mostly cloudy
Temperature: 30.9 F (-0.6 C)
Windchill: 24 F (-4 C):1
Dew Point: 23.0 F (-5.0 C)
Relative Humidity: 72%
Pressure (altimeter): 30.08 in. Hg (1018 hPa)
ob: KENW 050629Z AUTO 33005KT 10SM BKN029 M01/M05 A3008 RMK AO2 T10061050
cycle: 6

Station Type Date Time Source
KENW TAF 2020/12/05 06:22 UTC NOAA

TAF KENW 050520Z 0506/0606 35005KT P6SM FEW030
FM050900 35005KT P6SM BKN025
FM052100 34005KT P6SM SCT030

Example: see airport list